Terminal Aerodrome Forecast
Issued by NWS Louisville, KY

Home | Current Version | Previous Version | Text Only | Print | Product List | Glossary On
Versions: 1 2 3 4 5 6 7 8 9 10 11 12 13 14 15 16 17
000
FTUS43 KLMK 241726
TAFBWG
TAF
KBWG 241726Z 2418/2518 19015G25KT P6SM SCT040
     FM250000 17009KT P6SM BKN150
     FM250900 17008KT P6SM FEW040 BKN180 WS020/20045KT
     FM251300 17015G28KT P6SM SCT040=

USA.gov is the U.S. government's official web portal to all federal, state and local government web resources and services.